sensor_id;sensor_type;location;lat;lon;timestamp;temperature;humidity
30764;DHT22;17497;51.476;7.770;2023-11-19T00:01:43;9.50;99.90
30764;DHT22;17497;51.476;7.770;2023-11-19T00:04:10;9.50;99.90
30764;DHT22;17497;51.476;7.770;2023-11-19T00:06:36;9.50;99.90
30764;DHT22;17497;51.476;7.770;2023-11-19T00:09:03;9.50;99.90
30764;DHT22;17497;51.476;7.770;2023-11-19T00:11:30;9.50;99.90
30764;DHT22;17497;51.476;7.770;2023-11-19T00:13:57;9.50;99.90
30764;DHT22;17497;51.476;7.770;2023-11-19T00:16:23;9.50;99.90
30764;DHT22;17497;51.476;7.770;2023-11-19T00:18:50;9.60;99.90
30764;DHT22;17497;51.476;7.770;2023-11-19T00:21:17;9.70;99.90
30764;DHT22;17497;51.476;7.770;2023-11-19T00:23:46;9.70;99.90
30764;DHT22;17497;51.476;7.770;2023-11-19T00:26:12;9.80;99.90
30764;DHT22;17497;51.476;7.770;2023-11-19T00:28:41;9.80;99.90
30764;DHT22;17497;51.476;7.770;2023-11-19T00:31:09;9.80;99.90
30764;DHT22;17497;51.476;7.770;2023-11-19T00:33:36;9.90;99.90
30764;DHT22;17497;51.476;7.770;2023-11-19T00:36:15;9.90;99.90
30764;DHT22;17497;51.476;7.770;2023-11-19T00:38:41;10.00;99.90
30764;DHT22;17497;51.476;7.770;2023-11-19T00:41:08;10.00;99.90
30764;DHT22;17497;51.476;7.770;2023-11-19T00:43:35;10.00;99.90
30764;DHT22;17497;51.476;7.770;2023-11-19T00:46:01;10.00;99.90
30764;DHT22;17497;51.476;7.770;2023-11-19T00:48:29;10.00;99.90
30764;DHT22;17497;51.476;7.770;2023-11-19T00:50:56;10.00;99.90
30764;DHT22;17497;51.476;7.770;2023-11-19T00:53:22;10.10;99.90
30764;DHT22;17497;51.476;7.770;2023-11-19T00:55:49;10.10;99.90
30764;DHT22;17497;51.476;7.770;2023-11-19T00:58:16;10.20;99.90
30764;DHT22;17497;51.476;7.770;2023-11-19T01:00:44;10.30;99.90
30764;DHT22;17497;51.476;7.770;2023-11-19T01:03:11;10.30;99.90
30764;DHT22;17497;51.476;7.770;2023-11-19T01:05:38;10.40;99.90
30764;DHT22;17497;51.476;7.770;2023-11-19T01:08:07;10.40;99.90
30764;DHT22;17497;51.476;7.770;2023-11-19T01:10:36;10.40;99.90
30764;DHT22;17497;51.476;7.770;2023-11-19T01:13:03;10.40;99.90
30764;DHT22;17497;51.476;7.770;2023-11-19T01:15:32;10.40;99.90
30764;DHT22;17497;51.476;7.770;2023-11-19T01:17:58;10.50;99.90
30764;DHT22;17497;51.476;7.770;2023-11-19T01:20:25;10.50;99.90
30764;DHT22;17497;51.476;7.770;2023-11-19T01:22:53;10.50;99.90
30764;DHT22;17497;51.476;7.770;2023-11-19T01:25:19;10.60;99.90
30764;DHT22;17497;51.476;7.770;2023-11-19T01:27:46;10.60;99.90
30764;DHT22;17497;51.476;7.770;2023-11-19T01:30:13;10.60;99.90
30764;DHT22;17497;51.476;7.770;2023-11-19T01:32:40;10.70;99.90
30764;DHT22;17497;51.476;7.770;2023-11-19T01:35:07;10.70;99.90
30764;DHT22;17497;51.476;7.770;2023-11-19T01:37:34;10.70;99.90
30764;DHT22;17497;51.476;7.770;2023-11-19T01:40:02;10.80;99.90
30764;DHT22;17497;51.476;7.770;2023-11-19T01:42:36;10.80;99.90
30764;DHT22;17497;51.476;7.770;2023-11-19T01:45:02;10.80;99.90
30764;DHT22;17497;51.476;7.770;2023-11-19T01:47:33;10.80;99.90
30764;DHT22;17497;51.476;7.770;2023-11-19T01:50:00;10.70;99.90
30764;DHT22;17497;51.476;7.770;2023-11-19T01:52:27;10.80;99.90
30764;DHT22;17497;51.476;7.770;2023-11-19T01:54:54;10.70;99.90
30764;DHT22;17497;51.476;7.770;2023-11-19T01:57:21;10.70;99.90
30764;DHT22;17497;51.476;7.770;2023-11-19T01:59:52;10.60;99.90
30764;DHT22;17497;51.476;7.770;2023-11-19T02:02:18;10.70;99.90
30764;DHT22;17497;51.476;7.770;2023-11-19T02:04:49;10.60;99.90
30764;DHT22;17497;51.476;7.770;2023-11-19T02:07:16;10.60;99.90
30764;DHT22;17497;51.476;7.770;2023-11-19T02:09:43;10.60;99.90
30764;DHT22;17497;51.476;7.770;2023-11-19T02:12:10;10.60;99.90
30764;DHT22;17497;51.476;7.770;2023-11-19T02:14:40;10.60;99.90
30764;DHT22;17497;51.476;7.770;2023-11-19T02:17:06;10.60;99.90
30764;DHT22;17497;51.476;7.770;2023-11-19T02:19:33;10.60;99.90
30764;DHT22;17497;51.476;7.770;2023-11-19T02:22:00;10.60;99.90
30764;DHT22;17497;51.476;7.770;2023-11-19T02:24:27;10.60;99.90
30764;DHT22;17497;51.476;7.770;2023-11-19T02:29:27;10.60;99.90
30764;DHT22;17497;51.476;7.770;2023-11-19T02:31:53;10.70;99.90
30764;DHT22;17497;51.476;7.770;2023-11-19T02:34:21;10.70;99.90
30764;DHT22;17497;51.476;7.770;2023-11-19T02:36:48;10.70;99.90
30764;DHT22;17497;51.476;7.770;2023-11-19T02:39:16;10.70;99.90
30764;DHT22;17497;51.476;7.770;2023-11-19T02:41:47;10.70;99.90
30764;DHT22;17497;51.476;7.770;2023-11-19T02:44:17;10.70;99.90
30764;DHT22;17497;51.476;7.770;2023-11-19T02:46:44;10.80;99.90
30764;DHT22;17497;51.476;7.770;2023-11-19T02:49:10;10.70;99.90
30764;DHT22;17497;51.476;7.770;2023-11-19T02:51:37;10.70;99.90
30764;DHT22;17497;51.476;7.770;2023-11-19T02:54:05;10.70;99.90
30764;DHT22;17497;51.476;7.770;2023-11-19T02:56:31;10.70;99.90
30764;DHT22;17497;51.476;7.770;2023-11-19T02:59:02;10.70;99.90
30764;DHT22;17497;51.476;7.770;2023-11-19T03:01:41;10.70;99.90
30764;DHT22;17497;51.476;7.770;2023-11-19T03:04:10;10.70;99.90
30764;DHT22;17497;51.476;7.770;2023-11-19T03:06:38;10.70;99.90
30764;DHT22;17497;51.476;7.770;2023-11-19T03:09:05;10.70;99.90
30764;DHT22;17497;51.476;7.770;2023-11-19T03:11:37;10.80;99.90
30764;DHT22;17497;51.476;7.770;2023-11-19T03:14:03;10.80;99.90
30764;DHT22;17497;51.476;7.770;2023-11-19T03:16:30;10.80;99.90
30764;DHT22;17497;51.476;7.770;2023-11-19T03:18:57;10.80;99.90
30764;DHT22;17497;51.476;7.770;2023-11-19T03:21:30;10.80;99.90
30764;DHT22;17497;51.476;7.770;2023-11-19T03:24:00;10.90;99.90
30764;DHT22;17497;51.476;7.770;2023-11-19T03:26:27;11.00;99.90
30764;DHT22;17497;51.476;7.770;2023-11-19T03:28:53;11.10;99.90
30764;DHT22;17497;51.476;7.770;2023-11-19T03:31:20;11.10;99.90
30764;DHT22;17497;51.476;7.770;2023-11-19T03:33:47;11.20;99.90
30764;DHT22;17497;51.476;7.770;2023-11-19T03:36:13;11.20;99.90
30764;DHT22;17497;51.476;7.770;2023-11-19T03:38:40;11.30;99.90
30764;DHT22;17497;51.476;7.770;2023-11-19T03:41:15;11.30;99.90
30764;DHT22;17497;51.476;7.770;2023-11-19T03:43:42;11.40;99.90
30764;DHT22;17497;51.476;7.770;2023-11-19T03:46:16;11.40;99.90
30764;DHT22;17497;51.476;7.770;2023-11-19T03:48:42;11.50;99.90
30764;DHT22;17497;51.476;7.770;2023-11-19T03:51:09;11.50;99.90
30764;DHT22;17497;51.476;7.770;2023-11-19T03:53:36;11.50;99.90
30764;DHT22;17497;51.476;7.770;2023-11-19T03:56:03;11.50;99.90
30764;DHT22;17497;51.476;7.770;2023-11-19T03:58:30;11.50;99.90
30764;DHT22;17497;51.476;7.770;2023-11-19T04:00:56;11.60;99.90
30764;DHT22;17497;51.476;7.770;2023-11-19T04:03:23;11.60;99.90
30764;DHT22;17497;51.476;7.770;2023-11-19T04:05:49;11.60;99.90
30764;DHT22;17497;51.476;7.770;2023-11-19T04:08:16;11.60;99.90
30764;DHT22;17497;51.476;7.770;2023-11-19T04:10:43;11.70;99.90
30764;DHT22;17497;51.476;7.770;2023-11-19T04:13:09;11.70;99.90
30764;DHT22;17497;51.476;7.770;2023-11-19T04:15:36;11.60;99.90
30764;DHT22;17497;51.476;7.770;2023-11-19T04:18:02;11.60;99.90
30764;DHT22;17497;51.476;7.770;2023-11-19T04:20:29;11.70;99.90
30764;DHT22;17497;51.476;7.770;2023-11-19T04:22:56;11.70;99.90
30764;DHT22;17497;51.476;7.770;2023-11-19T04:25:23;11.80;99.90
30764;DHT22;17497;51.476;7.770;2023-11-19T04:27:50;11.70;99.90
30764;DHT22;17497;51.476;7.770;2023-11-19T04:30:17;11.70;99.90
30764;DHT22;17497;51.476;7.770;2023-11-19T04:32:44;11.70;99.90
30764;DHT22;17497;51.476;7.770;2023-11-19T04:35:11;11.70;99.90
30764;DHT22;17497;51.476;7.770;2023-11-19T04:37:37;11.60;99.90
30764;DHT22;17497;51.476;7.770;2023-11-19T04:40:05;11.50;99.90
30764;DHT22;17497;51.476;7.770;2023-11-19T04:42:32;11.50;99.90
30764;DHT22;17497;51.476;7.770;2023-11-19T04:44:59;11.60;99.90
30764;DHT22;17497;51.476;7.770;2023-11-19T04:47:25;11.50;99.90
30764;DHT22;17497;51.476;7.770;2023-11-19T04:49:52;11.60;99.90
30764;DHT22;17497;51.476;7.770;2023-11-19T04:52:19;11.50;99.90
30764;DHT22;17497;51.476;7.770;2023-11-19T04:54:45;11.50;99.90
30764;DHT22;17497;51.476;7.770;2023-11-19T04:57:12;11.40;99.90
30764;DHT22;17497;51.476;7.770;2023-11-19T04:59:39;11.50;99.90
30764;DHT22;17497;51.476;7.770;2023-11-19T05:02:05;11.50;99.90
30764;DHT22;17497;51.476;7.770;2023-11-19T05:04:32;11.50;99.90
30764;DHT22;17497;51.476;7.770;2023-11-19T05:06:59;11.50;99.90
30764;DHT22;17497;51.476;7.770;2023-11-19T05:09:25;11.50;99.90
30764;DHT22;17497;51.476;7.770;2023-11-19T05:11:52;11.50;99.90
30764;DHT22;17497;51.476;7.770;2023-11-19T05:14:19;11.50;99.90
30764;DHT22;17497;51.476;7.770;2023-11-19T05:16:47;11.50;99.90
30764;DHT22;17497;51.476;7.770;2023-11-19T05:19:13;11.40;99.90
30764;DHT22;17497;51.476;7.770;2023-11-19T05:21:44;11.40;99.90
30764;DHT22;17497;51.476;7.770;2023-11-19T05:24:10;11.30;99.90
30764;DHT22;17497;51.476;7.770;2023-11-19T05:26:38;11.30;99.90
30764;DHT22;17497;51.476;7.770;2023-11-19T05:29:04;11.30;99.90
30764;DHT22;17497;51.476;7.770;2023-11-19T05:31:31;11.50;99.90
30764;DHT22;17497;51.476;7.770;2023-11-19T05:34:02;11.50;99.90
30764;DHT22;17497;51.476;7.770;2023-11-19T05:36:28;11.60;99.90
30764;DHT22;17497;51.476;7.770;2023-11-19T05:38:55;11.50;99.90
30764;DHT22;17497;51.476;7.770;2023-11-19T05:41:22;11.50;99.90
30764;DHT22;17497;51.476;7.770;2023-11-19T05:43:48;11.40;99.90
30764;DHT22;17497;51.476;7.770;2023-11-19T05:46:15;11.40;99.90
30764;DHT22;17497;51.476;7.770;2023-11-19T05:48:45;11.40;99.90
30764;DHT22;17497;51.476;7.770;2023-11-19T05:51:13;11.40;99.90
30764;DHT22;17497;51.476;7.770;2023-11-19T05:53:41;11.40;99.90
30764;DHT22;17497;51.476;7.770;2023-11-19T05:56:08;11.40;99.90
30764;DHT22;17497;51.476;7.770;2023-11-19T05:58:35;11.50;99.90
30764;DHT22;17497;51.476;7.770;2023-11-19T06:01:02;11.40;99.90
30764;DHT22;17497;51.476;7.770;2023-11-19T06:03:30;11.30;99.90
30764;DHT22;17497;51.476;7.770;2023-11-19T06:05:56;11.40;99.90
30764;DHT22;17497;51.476;7.770;2023-11-19T06:08:23;11.40;99.90
30764;DHT22;17497;51.476;7.770;2023-11-19T06:10:49;11.30;99.90
30764;DHT22;17497;51.476;7.770;2023-11-19T06:13:17;11.40;99.90
30764;DHT22;17497;51.476;7.770;2023-11-19T06:15:44;11.30;99.90
30764;DHT22;17497;51.476;7.770;2023-11-19T06:18:11;11.40;99.90
30764;DHT22;17497;51.476;7.770;2023-11-19T06:20:41;11.30;99.90
30764;DHT22;17497;51.476;7.770;2023-11-19T06:23:09;11.40;99.90
30764;DHT22;17497;51.476;7.770;2023-11-19T06:25:36;11.50;99.90
30764;DHT22;17497;51.476;7.770;2023-11-19T06:28:03;11.50;99.90
30764;DHT22;17497;51.476;7.770;2023-11-19T06:30:30;11.50;99.90
30764;DHT22;17497;51.476;7.770;2023-11-19T06:32:58;11.50;99.90
30764;DHT22;17497;51.476;7.770;2023-11-19T06:35:26;11.60;99.90
30764;DHT22;17497;51.476;7.770;2023-11-19T06:37:53;11.60;99.90
30764;DHT22;17497;51.476;7.770;2023-11-19T06:40:19;11.50;99.90
30764;DHT22;17497;51.476;7.770;2023-11-19T06:42:47;11.50;99.90
30764;DHT22;17497;51.476;7.770;2023-11-19T06:45:13;11.50;99.90
30764;DHT22;17497;51.476;7.770;2023-11-19T06:47:40;11.50;99.90
30764;DHT22;17497;51.476;7.770;2023-11-19T06:50:07;11.50;99.90
30764;DHT22;17497;51.476;7.770;2023-11-19T06:52:34;11.40;99.90
30764;DHT22;17497;51.476;7.770;2023-11-19T06:55:00;11.40;99.90
30764;DHT22;17497;51.476;7.770;2023-11-19T06:57:30;11.40;99.90
30764;DHT22;17497;51.476;7.770;2023-11-19T06:59:58;11.40;99.90
30764;DHT22;17497;51.476;7.770;2023-11-19T07:02:25;11.30;99.90
30764;DHT22;17497;51.476;7.770;2023-11-19T07:04:53;11.40;99.90
30764;DHT22;17497;51.476;7.770;2023-11-19T07:07:21;11.40;99.90
30764;DHT22;17497;51.476;7.770;2023-11-19T07:09:47;11.40;99.90
30764;DHT22;17497;51.476;7.770;2023-11-19T07:12:14;11.30;99.90
30764;DHT22;17497;51.476;7.770;2023-11-19T07:14:41;11.30;99.90
30764;DHT22;17497;51.476;7.770;2023-11-19T07:17:08;11.30;99.90
30764;DHT22;17497;51.476;7.770;2023-11-19T07:19:36;11.30;99.90
30764;DHT22;17497;51.476;7.770;2023-11-19T07:22:04;11.30;99.90
30764;DHT22;17497;51.476;7.770;2023-11-19T07:24:32;11.30;99.90
30764;DHT22;17497;51.476;7.770;2023-11-19T07:26:59;11.30;99.90
30764;DHT22;17497;51.476;7.770;2023-11-19T07:29:26;11.30;99.90
30764;DHT22;17497;51.476;7.770;2023-11-19T07:31:55;11.30;99.90
30764;DHT22;17497;51.476;7.770;2023-11-19T07:34:23;11.30;99.90
30764;DHT22;17497;51.476;7.770;2023-11-19T07:36:50;11.30;99.90
30764;DHT22;17497;51.476;7.770;2023-11-19T07:39:17;11.30;99.90
30764;DHT22;17497;51.476;7.770;2023-11-19T07:41:43;11.30;99.90
30764;DHT22;17497;51.476;7.770;2023-11-19T07:44:10;11.30;99.90
30764;DHT22;17497;51.476;7.770;2023-11-19T07:46:37;11.30;99.90
30764;DHT22;17497;51.476;7.770;2023-11-19T07:49:04;11.30;99.90
30764;DHT22;17497;51.476;7.770;2023-11-19T07:51:30;11.20;99.90
30764;DHT22;17497;51.476;7.770;2023-11-19T07:53:57;11.30;99.90
30764;DHT22;17497;51.476;7.770;2023-11-19T07:56:24;11.20;99.90
30764;DHT22;17497;51.476;7.770;2023-11-19T07:58:51;11.30;99.90
30764;DHT22;17497;51.476;7.770;2023-11-19T08:01:19;11.30;99.90
30764;DHT22;17497;51.476;7.770;2023-11-19T08:03:46;11.30;99.90
30764;DHT22;17497;51.476;7.770;2023-11-19T08:06:15;11.30;99.90
30764;DHT22;17497;51.476;7.770;2023-11-19T08:08:42;11.30;99.90
30764;DHT22;17497;51.476;7.770;2023-11-19T08:11:09;11.30;99.90
30764;DHT22;17497;51.476;7.770;2023-11-19T08:13:36;11.20;99.90
30764;DHT22;17497;51.476;7.770;2023-11-19T08:16:02;11.20;99.90
30764;DHT22;17497;51.476;7.770;2023-11-19T08:18:29;11.30;99.90
30764;DHT22;17497;51.476;7.770;2023-11-19T08:20:56;11.30;99.90
30764;DHT22;17497;51.476;7.770;2023-11-19T08:23:24;11.30;99.90
30764;DHT22;17497;51.476;7.770;2023-11-19T08:25:52;11.30;99.90
30764;DHT22;17497;51.476;7.770;2023-11-19T08:28:19;11.30;99.90
30764;DHT22;17497;51.476;7.770;2023-11-19T08:30:45;11.30;99.90
30764;DHT22;17497;51.476;7.770;2023-11-19T08:33:12;11.30;99.90
30764;DHT22;17497;51.476;7.770;2023-11-19T08:35:39;11.30;99.90
30764;DHT22;17497;51.476;7.770;2023-11-19T08:38:06;11.30;99.90
30764;DHT22;17497;51.476;7.770;2023-11-19T08:40:33;11.30;99.90
30764;DHT22;17497;51.476;7.770;2023-11-19T08:42:59;11.40;99.90
30764;DHT22;17497;51.476;7.770;2023-11-19T08:45:26;11.40;99.90
30764;DHT22;17497;51.476;7.770;2023-11-19T08:47:53;11.40;99.90
30764;DHT22;17497;51.476;7.770;2023-11-19T08:50:19;11.50;99.90
30764;DHT22;17497;51.476;7.770;2023-11-19T08:52:46;11.50;99.90
30764;DHT22;17497;51.476;7.770;2023-11-19T08:55:13;11.50;99.90
30764;DHT22;17497;51.476;7.770;2023-11-19T08:57:40;11.40;99.90
30764;DHT22;17497;51.476;7.770;2023-11-19T09:00:06;11.50;99.90
30764;DHT22;17497;51.476;7.770;2023-11-19T09:02:38;11.50;99.90
30764;DHT22;17497;51.476;7.770;2023-11-19T09:05:05;11.50;99.90
30764;DHT22;17497;51.476;7.770;2023-11-19T09:07:34;11.50;99.90
30764;DHT22;17497;51.476;7.770;2023-11-19T09:10:00;11.50;99.90
30764;DHT22;17497;51.476;7.770;2023-11-19T09:12:27;11.60;99.90
30764;DHT22;17497;51.476;7.770;2023-11-19T09:14:53;11.60;99.90
30764;DHT22;17497;51.476;7.770;2023-11-19T09:17:20;11.60;99.90
30764;DHT22;17497;51.476;7.770;2023-11-19T09:19:47;11.70;99.90
30764;DHT22;17497;51.476;7.770;2023-11-19T09:22:13;11.70;99.90
30764;DHT22;17497;51.476;7.770;2023-11-19T09:24:41;11.80;99.90
30764;DHT22;17497;51.476;7.770;2023-11-19T09:27:07;11.90;99.90
30764;DHT22;17497;51.476;7.770;2023-11-19T09:29:34;11.90;99.90
30764;DHT22;17497;51.476;7.770;2023-11-19T09:32:01;11.80;99.90
30764;DHT22;17497;51.476;7.770;2023-11-19T09:34:29;11.80;99.90
30764;DHT22;17497;51.476;7.770;2023-11-19T09:36:56;11.80;99.90
30764;DHT22;17497;51.476;7.770;2023-11-19T09:39:23;11.80;99.90
30764;DHT22;17497;51.476;7.770;2023-11-19T09:41:52;11.80;99.90
30764;DHT22;17497;51.476;7.770;2023-11-19T09:44:18;11.80;99.90
30764;DHT22;17497;51.476;7.770;2023-11-19T09:46:45;11.90;99.90
30764;DHT22;17497;51.476;7.770;2023-11-19T09:49:13;11.90;99.90
30764;DHT22;17497;51.476;7.770;2023-11-19T09:51:39;11.90;99.90
30764;DHT22;17497;51.476;7.770;2023-11-19T09:54:09;11.80;99.90
30764;DHT22;17497;51.476;7.770;2023-11-19T09:56:40;11.80;99.90
30764;DHT22;17497;51.476;7.770;2023-11-19T09:59:07;11.80;99.90
30764;DHT22;17497;51.476;7.770;2023-11-19T10:01:34;11.80;99.90
30764;DHT22;17497;51.476;7.770;2023-11-19T10:04:02;11.80;99.90
30764;DHT22;17497;51.476;7.770;2023-11-19T10:06:29;11.70;99.90
30764;DHT22;17497;51.476;7.770;2023-11-19T10:08:56;11.80;99.90
30764;DHT22;17497;51.476;7.770;2023-11-19T10:11:24;11.90;99.90
30764;DHT22;17497;51.476;7.770;2023-11-19T10:13:51;11.90;99.90
30764;DHT22;17497;51.476;7.770;2023-11-19T10:16:18;11.80;99.90
30764;DHT22;17497;51.476;7.770;2023-11-19T10:18:48;11.90;99.90
30764;DHT22;17497;51.476;7.770;2023-11-19T10:21:19;11.90;99.90
30764;DHT22;17497;51.476;7.770;2023-11-19T10:23:50;12.00;99.90
30764;DHT22;17497;51.476;7.770;2023-11-19T10:26:18;12.00;99.90
30764;DHT22;17497;51.476;7.770;2023-11-19T10:28:48;12.10;99.90
30764;DHT22;17497;51.476;7.770;2023-11-19T10:31:16;12.20;99.90
30764;DHT22;17497;51.476;7.770;2023-11-19T10:33:43;12.50;99.90
30764;DHT22;17497;51.476;7.770;2023-11-19T10:36:13;12.80;99.90
30764;DHT22;17497;51.476;7.770;2023-11-19T10:38:41;13.10;99.90
30764;DHT22;17497;51.476;7.770;2023-11-19T10:41:26;13.20;99.90
30764;DHT22;17497;51.476;7.770;2023-11-19T10:43:53;13.20;99.90
30764;DHT22;17497;51.476;7.770;2023-11-19T10:46:23;13.20;99.90
30764;DHT22;17497;51.476;7.770;2023-11-19T10:49:02;13.00;99.90
30764;DHT22;17497;51.476;7.770;2023-11-19T10:51:28;12.90;99.90
30764;DHT22;17497;51.476;7.770;2023-11-19T10:53:56;12.60;99.90
30764;DHT22;17497;51.476;7.770;2023-11-19T10:56:26;12.50;99.90
30764;DHT22;17497;51.476;7.770;2023-11-19T10:58:56;12.30;99.90
30764;DHT22;17497;51.476;7.770;2023-11-19T11:01:26;12.40;99.90
30764;DHT22;17497;51.476;7.770;2023-11-19T11:03:54;12.40;99.90
30764;DHT22;17497;51.476;7.770;2023-11-19T11:06:22;12.20;99.90
30764;DHT22;17497;51.476;7.770;2023-11-19T11:08:49;12.20;99.90
30764;DHT22;17497;51.476;7.770;2023-11-19T11:11:17;12.20;99.90
30764;DHT22;17497;51.476;7.770;2023-11-19T11:13:47;12.10;99.90
30764;DHT22;17497;51.476;7.770;2023-11-19T11:16:19;12.10;99.90
30764;DHT22;17497;51.476;7.770;2023-11-19T11:18:49;12.10;99.90
30764;DHT22;17497;51.476;7.770;2023-11-19T11:21:17;12.10;99.90
30764;DHT22;17497;51.476;7.770;2023-11-19T11:28:59;12.10;99.90
30764;DHT22;17497;51.476;7.770;2023-11-19T11:40:02;11.90;99.90
30764;DHT22;17497;51.476;7.770;2023-11-19T11:42:36;11.90;99.90
30764;DHT22;17497;51.476;7.770;2023-11-19T11:50:15;11.50;99.90
30764;DHT22;17497;51.476;7.770;2023-11-19T11:55:24;11.30;99.90
30764;DHT22;17497;51.476;7.770;2023-11-19T11:57:51;11.30;99.90
30764;DHT22;17497;51.476;7.770;2023-11-19T12:00:27;11.30;99.90
30764;DHT22;17497;51.476;7.770;2023-11-19T12:02:59;11.40;99.90
30764;DHT22;17497;51.476;7.770;2023-11-19T12:05:27;11.50;99.90
30764;DHT22;17497;51.476;7.770;2023-11-19T12:08:01;11.60;99.90
30764;DHT22;17497;51.476;7.770;2023-11-19T12:10:32;11.70;99.90
30764;DHT22;17497;51.476;7.770;2023-11-19T12:12:59;11.90;99.90
30764;DHT22;17497;51.476;7.770;2023-11-19T12:15:28;12.10;99.90
30764;DHT22;17497;51.476;7.770;2023-11-19T12:17:55;12.40;99.90
30764;DHT22;17497;51.476;7.770;2023-11-19T12:20:23;12.60;99.90
30764;DHT22;17497;51.476;7.770;2023-11-19T12:22:53;12.70;99.90
30764;DHT22;17497;51.476;7.770;2023-11-19T12:25:24;12.70;99.90
30764;DHT22;17497;51.476;7.770;2023-11-19T12:27:52;12.90;99.90
30764;DHT22;17497;51.476;7.770;2023-11-19T12:30:23;13.00;99.90
30764;DHT22;17497;51.476;7.770;2023-11-19T12:32:53;12.90;99.90
30764;DHT22;17497;51.476;7.770;2023-11-19T12:35:20;12.80;99.90
30764;DHT22;17497;51.476;7.770;2023-11-19T12:37:49;12.70;99.90
30764;DHT22;17497;51.476;7.770;2023-11-19T12:40:17;12.60;99.90
30764;DHT22;17497;51.476;7.770;2023-11-19T12:42:47;12.50;99.90
30764;DHT22;17497;51.476;7.770;2023-11-19T12:45:14;12.40;99.90
30764;DHT22;17497;51.476;7.770;2023-11-19T12:47:43;12.50;99.90
30764;DHT22;17497;51.476;7.770;2023-11-19T12:50:10;12.70;99.90
30764;DHT22;17497;51.476;7.770;2023-11-19T12:52:37;12.90;99.90
30764;DHT22;17497;51.476;7.770;2023-11-19T12:55:04;13.00;99.90
30764;DHT22;17497;51.476;7.770;2023-11-19T12:57:35;12.90;99.90
30764;DHT22;17497;51.476;7.770;2023-11-19T13:00:03;12.80;99.90
30764;DHT22;17497;51.476;7.770;2023-11-19T13:02:49;12.60;99.90
30764;DHT22;17497;51.476;7.770;2023-11-19T13:05:34;12.50;99.90
30764;DHT22;17497;51.476;7.770;2023-11-19T13:10:28;12.30;99.90
30764;DHT22;17497;51.476;7.770;2023-11-19T13:15:27;12.30;99.90
30764;DHT22;17497;51.476;7.770;2023-11-19T13:17:55;12.30;99.90
30764;DHT22;17497;51.476;7.770;2023-11-19T13:20:22;12.30;99.90
30764;DHT22;17497;51.476;7.770;2023-11-19T13:22:58;12.30;99.90
30764;DHT22;17497;51.476;7.770;2023-11-19T13:25:28;12.30;99.90
30764;DHT22;17497;51.476;7.770;2023-11-19T13:27:55;12.30;99.90
30764;DHT22;17497;51.476;7.770;2023-11-19T13:30:22;12.30;99.90
30764;DHT22;17497;51.476;7.770;2023-11-19T13:32:52;12.20;99.90
30764;DHT22;17497;51.476;7.770;2023-11-19T13:35:19;12.20;99.90
30764;DHT22;17497;51.476;7.770;2023-11-19T13:37:45;12.00;99.90
30764;DHT22;17497;51.476;7.770;2023-11-19T13:40:12;11.80;99.90
30764;DHT22;17497;51.476;7.770;2023-11-19T13:42:42;11.70;99.90
30764;DHT22;17497;51.476;7.770;2023-11-19T13:45:14;11.50;99.90
30764;DHT22;17497;51.476;7.770;2023-11-19T13:47:42;11.60;99.90
30764;DHT22;17497;51.476;7.770;2023-11-19T13:50:10;11.60;99.90
30764;DHT22;17497;51.476;7.770;2023-11-19T13:52:38;11.70;99.90
30764;DHT22;17497;51.476;7.770;2023-11-19T13:55:05;11.70;99.90
30764;DHT22;17497;51.476;7.770;2023-11-19T13:57:33;11.70;99.90
30764;DHT22;17497;51.476;7.770;2023-11-19T14:00:01;11.80;99.90
30764;DHT22;17497;51.476;7.770;2023-11-19T14:02:31;11.80;99.90
30764;DHT22;17497;51.476;7.770;2023-11-19T14:04:58;11.80;99.90
30764;DHT22;17497;51.476;7.770;2023-11-19T14:07:25;11.90;99.90
30764;DHT22;17497;51.476;7.770;2023-11-19T14:09:52;12.00;99.90
30764;DHT22;17497;51.476;7.770;2023-11-19T14:12:19;12.00;99.90
30764;DHT22;17497;51.476;7.770;2023-11-19T14:14:45;11.90;99.90
30764;DHT22;17497;51.476;7.770;2023-11-19T14:17:12;11.90;99.90
30764;DHT22;17497;51.476;7.770;2023-11-19T14:19:40;12.00;99.90
30764;DHT22;17497;51.476;7.770;2023-11-19T14:22:06;12.00;99.90
30764;DHT22;17497;51.476;7.770;2023-11-19T14:24:33;12.00;99.90
30764;DHT22;17497;51.476;7.770;2023-11-19T14:27:00;12.00;99.90
30764;DHT22;17497;51.476;7.770;2023-11-19T14:29:27;12.00;99.90
30764;DHT22;17497;51.476;7.770;2023-11-19T14:31:56;12.00;99.90
30764;DHT22;17497;51.476;7.770;2023-11-19T14:34:22;12.00;99.90
30764;DHT22;17497;51.476;7.770;2023-11-19T14:36:49;12.00;99.90
30764;DHT22;17497;51.476;7.770;2023-11-19T14:39:16;12.00;99.90
30764;DHT22;17497;51.476;7.770;2023-11-19T14:41:43;11.90;99.90
30764;DHT22;17497;51.476;7.770;2023-11-19T14:44:10;11.80;99.90
30764;DHT22;17497;51.476;7.770;2023-11-19T14:46:37;11.80;99.90
30764;DHT22;17497;51.476;7.770;2023-11-19T14:49:04;11.60;99.90
30764;DHT22;17497;51.476;7.770;2023-11-19T14:51:31;11.60;99.90
30764;DHT22;17497;51.476;7.770;2023-11-19T14:53:58;11.60;99.90
30764;DHT22;17497;51.476;7.770;2023-11-19T14:56:24;11.60;99.90
30764;DHT22;17497;51.476;7.770;2023-11-19T14:58:51;11.60;99.90
30764;DHT22;17497;51.476;7.770;2023-11-19T15:01:18;11.60;99.90
30764;DHT22;17497;51.476;7.770;2023-11-19T15:03:45;11.60;99.90
30764;DHT22;17497;51.476;7.770;2023-11-19T15:06:14;11.50;99.90
30764;DHT22;17497;51.476;7.770;2023-11-19T15:08:41;11.40;99.90
30764;DHT22;17497;51.476;7.770;2023-11-19T15:11:08;11.20;99.90
30764;DHT22;17497;51.476;7.770;2023-11-19T15:13:35;11.10;99.90
30764;DHT22;17497;51.476;7.770;2023-11-19T15:16:04;11.00;99.90
30764;DHT22;17497;51.476;7.770;2023-11-19T15:18:33;11.00;99.90
30764;DHT22;17497;51.476;7.770;2023-11-19T15:21:00;11.00;99.90
30764;DHT22;17497;51.476;7.770;2023-11-19T15:23:27;11.00;99.90
30764;DHT22;17497;51.476;7.770;2023-11-19T15:25:55;10.90;99.90
30764;DHT22;17497;51.476;7.770;2023-11-19T15:28:22;10.90;99.90
30764;DHT22;17497;51.476;7.770;2023-11-19T15:30:49;10.90;99.90
30764;DHT22;17497;51.476;7.770;2023-11-19T15:33:16;10.90;99.90
30764;DHT22;17497;51.476;7.770;2023-11-19T15:35:43;10.80;99.90
30764;DHT22;17497;51.476;7.770;2023-11-19T15:38:09;10.90;99.90
30764;DHT22;17497;51.476;7.770;2023-11-19T15:40:36;10.90;99.90
30764;DHT22;17497;51.476;7.770;2023-11-19T15:43:04;10.80;99.90
30764;DHT22;17497;51.476;7.770;2023-11-19T15:45:32;10.70;99.90
30764;DHT22;17497;51.476;7.770;2023-11-19T15:48:04;10.70;99.90
30764;DHT22;17497;51.476;7.770;2023-11-19T15:50:31;10.70;99.90
30764;DHT22;17497;51.476;7.770;2023-11-19T15:52:58;10.70;99.90
30764;DHT22;17497;51.476;7.770;2023-11-19T15:55:25;10.70;99.90
30764;DHT22;17497;51.476;7.770;2023-11-19T15:57:52;10.70;99.90
30764;DHT22;17497;51.476;7.770;2023-11-19T16:00:19;10.70;99.90
30764;DHT22;17497;51.476;7.770;2023-11-19T16:02:48;10.70;99.90
30764;DHT22;17497;51.476;7.770;2023-11-19T16:05:16;10.70;99.90